Travesseiro, Brazil
Current Conditions -  °F | °C
As of 9:00 PM on Friday 24 Oct 2014 (Local Time) from SBCO Reporting Station
Haze Haze  
Wind Chill: 72°   Ceiling: Unl
Heat Index: 72°   Visibility: 3mi
Dew Point: 66°   Wind: 8mph
Humidity: 83%   Direction: 150°SSE
Pressure: 29.91"   Gusts: NA
Location:  29.29°S, 52.06°W
Report Text: SBCO 242300Z 15007KT 5000 BR FEW020 22/19 Q1013
Loading
Personal Weather Stations






























Interactive Weather Map
Tropical Storm Tracking
New forecast layout! Learn more

10-Day Weather Forecast

Advertisements
Track Severe Weather on mobile